createdAt,value
2023-08-07T00:02:16.521Z,4.97
2023-08-07T00:04:44.122Z,9.00
2023-08-07T00:07:11.111Z,4.47
2023-08-07T00:09:38.120Z,10.25
2023-08-07T00:12:05.709Z,6.35
2023-08-07T00:14:32.695Z,6.18
2023-08-07T00:16:59.705Z,9.40
2023-08-07T00:19:26.802Z,6.05
2023-08-07T00:21:54.893Z,6.78
2023-08-07T00:24:22.347Z,6.07
2023-08-07T00:26:49.356Z,5.63
2023-08-07T00:29:16.423Z,4.85
2023-08-07T00:31:43.642Z,10.43
2023-08-07T00:34:10.974Z,8.60
2023-08-07T00:36:38.794Z,6.20
2023-08-07T00:39:05.994Z,9.85
2023-08-07T00:41:33.933Z,7.60
2023-08-07T00:44:01.493Z,6.80
2023-08-07T00:46:30.659Z,10.13
2023-08-07T00:48:58.280Z,7.90
2023-08-07T00:51:25.564Z,6.72
2023-08-07T00:53:53.218Z,5.15
2023-08-07T00:56:21.539Z,7.70
2023-08-07T00:58:49.729Z,5.82
2023-08-07T01:01:17.014Z,8.93
2023-08-07T01:03:48.994Z,6.95
2023-08-07T01:06:16.423Z,11.50
2023-08-07T01:08:43.730Z,8.18
2023-08-07T01:11:20.979Z,9.25
2023-08-07T01:13:51.316Z,5.40
2023-08-07T01:16:28.858Z,9.18
2023-08-07T01:18:58.288Z,10.00
2023-08-07T01:21:25.451Z,8.02
2023-08-07T01:23:54.596Z,8.45
2023-08-07T01:26:22.885Z,6.97
2023-08-07T01:29:19.372Z,6.07
2023-08-07T01:31:50.183Z,6.53
2023-08-07T01:34:22.505Z,8.18
2023-08-07T01:36:52.337Z,10.63
2023-08-07T01:39:20.084Z,4.70
2023-08-07T01:41:48.866Z,7.25
2023-08-07T01:44:18.026Z,6.05
2023-08-07T01:46:45.146Z,7.95
2023-08-07T01:49:21.271Z,10.13
2023-08-07T01:51:48.441Z,5.85
2023-08-07T01:54:22.660Z,8.13
2023-08-07T01:56:50.131Z,5.88
2023-08-07T01:59:17.248Z,7.75
2023-08-07T02:01:44.809Z,7.00
2023-08-07T02:04:12.104Z,6.05
2023-08-07T02:06:39.422Z,5.30
2023-08-07T02:09:17.265Z,9.13
2023-08-07T02:11:47.406Z,8.40
2023-08-07T02:14:15.355Z,5.95
2023-08-07T02:16:42.530Z,7.50
2023-08-07T02:19:10.414Z,7.18
2023-08-07T02:21:37.405Z,5.82
2023-08-07T02:24:07.281Z,10.70
2023-08-07T02:26:35.224Z,8.75
2023-08-07T02:29:04.727Z,6.78
2023-08-07T02:31:32.320Z,10.60
2023-08-07T02:33:59.395Z,10.65
2023-08-07T02:36:26.620Z,5.60
2023-08-07T02:38:54.689Z,8.73
2023-08-07T02:41:21.789Z,6.75
2023-08-07T02:43:51.080Z,7.63
2023-08-07T02:46:18.360Z,7.03
2023-08-07T02:48:45.839Z,6.95
2023-08-07T02:51:12.913Z,7.10
2023-08-07T02:53:39.953Z,11.15
2023-08-07T02:56:07.528Z,7.80
2023-08-07T02:58:34.485Z,6.93
2023-08-07T03:01:08.499Z,11.93
2023-08-07T03:03:35.909Z,8.02
2023-08-07T03:06:03.227Z,9.65
2023-08-07T03:08:30.691Z,7.20
2023-08-07T03:10:59.277Z,11.40
2023-08-07T03:13:27.911Z,6.65
2023-08-07T03:16:02.226Z,8.32
2023-08-07T03:18:30.230Z,7.57
2023-08-07T03:20:58.825Z,9.13
2023-08-07T03:23:27.390Z,11.35
2023-08-07T03:26:18.301Z,8.63
2023-08-07T03:28:48.582Z,6.55
2023-08-07T03:31:16.371Z,12.80
2023-08-07T03:33:43.749Z,6.22
2023-08-07T03:36:11.037Z,14.38
2023-08-07T03:38:38.705Z,7.88
2023-08-07T03:41:05.968Z,8.07
2023-08-07T03:43:33.077Z,12.38
2023-08-07T03:46:03.525Z,9.02
2023-08-07T03:48:32.098Z,8.57
2023-08-07T03:51:07.049Z,10.80
2023-08-07T03:53:34.310Z,8.48
2023-08-07T03:56:01.336Z,8.57
2023-08-07T03:58:28.411Z,5.90
2023-08-07T04:00:57.472Z,10.07
2023-08-07T04:03:25.426Z,9.07
2023-08-07T04:05:57.356Z,8.70
2023-08-07T04:08:24.933Z,6.70
2023-08-07T04:11:02.191Z,8.82
2023-08-07T04:13:29.802Z,7.65
2023-08-07T04:15:57.388Z,8.43
2023-08-07T04:18:24.808Z,8.90
2023-08-07T04:20:55.238Z,11.73
2023-08-07T04:23:23.771Z,8.98
2023-08-07T04:25:51.731Z,8.15
2023-08-07T04:28:19.319Z,8.45
2023-08-07T04:30:50.106Z,12.30
2023-08-07T04:33:17.131Z,10.60
2023-08-07T04:35:44.400Z,8.95
2023-08-07T04:38:11.627Z,8.07
2023-08-07T04:40:39.191Z,9.48
2023-08-07T04:43:06.335Z,12.80
2023-08-07T04:45:34.568Z,12.25
2023-08-07T04:48:02.584Z,8.88
2023-08-07T04:50:31.833Z,9.32
2023-08-07T04:52:58.923Z,9.68
2023-08-07T04:55:26.929Z,9.70
2023-08-07T04:57:57.407Z,12.77
2023-08-07T05:00:25.102Z,14.32
2023-08-07T05:02:52.887Z,8.18
2023-08-07T05:05:23.049Z,8.63
2023-08-07T05:07:50.550Z,9.23
2023-08-07T05:10:17.665Z,10.23
2023-08-07T05:12:46.181Z,14.85
2023-08-07T05:15:13.199Z,14.88
2023-08-07T05:17:41.121Z,13.50
2023-08-07T05:20:10.448Z,10.98
2023-08-07T05:22:38.894Z,11.98
2023-08-07T05:25:06.323Z,14.55
2023-08-07T05:27:33.651Z,11.63
2023-08-07T05:30:01.221Z,10.23
2023-08-07T05:32:29.590Z,12.13
2023-08-07T05:34:57.511Z,10.80
2023-08-07T05:37:24.678Z,9.50
2023-08-07T05:39:51.746Z,10.20
2023-08-07T05:42:19.855Z,11.95
2023-08-07T05:44:49.727Z,11.90
2023-08-07T05:47:16.759Z,11.40
2023-08-07T05:49:44.409Z,14.73
2023-08-07T05:52:12.129Z,12.63
2023-08-07T05:54:39.111Z,12.63
2023-08-07T05:57:06.488Z,11.43
2023-08-07T05:59:35.711Z,15.20
2023-08-07T06:02:04.353Z,14.32
2023-08-07T06:04:36.741Z,18.63
2023-08-07T06:07:04.803Z,11.45
2023-08-07T06:09:32.289Z,12.90
2023-08-07T06:12:00.251Z,12.88
2023-08-07T06:14:27.523Z,11.73
2023-08-07T06:16:54.620Z,10.50
2023-08-07T06:19:31.175Z,13.05
2023-08-07T06:22:00.308Z,10.82
2023-08-07T06:24:29.950Z,10.82
2023-08-07T06:26:57.003Z,9.85
2023-08-07T06:29:24.241Z,12.48
2023-08-07T06:31:51.512Z,12.02
2023-08-07T06:34:18.744Z,11.55
2023-08-07T06:36:45.900Z,9.25
2023-08-07T06:39:13.850Z,11.25
2023-08-07T06:41:40.901Z,11.93
2023-08-07T06:44:10.251Z,9.43
2023-08-07T06:46:37.536Z,13.23
2023-08-07T06:49:05.183Z,9.27
2023-08-07T06:51:32.157Z,10.38
2023-08-07T06:53:59.176Z,13.25
2023-08-07T06:56:26.444Z,8.70
2023-08-07T06:58:53.469Z,13.85
2023-08-07T07:01:20.719Z,9.32
2023-08-07T07:03:54.784Z,11.10
2023-08-07T07:06:22.369Z,12.90
2023-08-07T07:08:50.182Z,10.82
2023-08-07T07:11:17.237Z,11.00
2023-08-07T07:13:44.353Z,8.30
2023-08-07T07:16:13.132Z,7.82
2023-08-07T07:18:40.785Z,8.32
2023-08-07T07:21:07.891Z,8.95
2023-08-07T07:23:35.039Z,9.48
2023-08-07T07:26:02.189Z,8.48
2023-08-07T07:28:29.369Z,7.05
2023-08-07T07:30:56.542Z,5.07
2023-08-07T07:33:23.736Z,10.52
2023-08-07T07:35:51.525Z,6.80
2023-08-07T07:38:18.608Z,7.25
2023-08-07T07:40:46.640Z,6.82
2023-08-07T07:43:14.305Z,10.60
2023-08-07T07:45:41.381Z,6.72
2023-08-07T07:48:09.351Z,6.70
2023-08-07T07:50:36.442Z,6.68
2023-08-07T07:53:04.396Z,5.60
2023-08-07T07:55:31.652Z,5.05
2023-08-07T07:57:59.024Z,6.70
2023-08-07T08:00:28.779Z,6.90
2023-08-07T08:02:55.882Z,5.47
2023-08-07T08:05:23.651Z,3.65
2023-08-07T08:07:51.075Z,5.78
2023-08-07T08:10:18.999Z,5.78
2023-08-07T08:12:46.017Z,5.25
2023-08-07T08:15:13.351Z,4.78
2023-08-07T08:17:40.651Z,5.53
2023-08-07T08:20:09.375Z,2.50
2023-08-07T08:22:37.511Z,6.70
2023-08-07T08:25:05.955Z,4.05
2023-08-07T08:27:33.850Z,4.85
2023-08-07T08:30:01.237Z,5.22
2023-08-07T08:32:28.326Z,5.97
2023-08-07T08:34:55.702Z,4.40
2023-08-07T08:37:23.523Z,4.90
2023-08-07T08:39:51.405Z,2.42
2023-08-07T08:42:21.443Z,2.25
2023-08-07T08:44:56.910Z,6.10
2023-08-07T08:47:26.758Z,4.18
2023-08-07T08:50:08.914Z,2.75
2023-08-07T08:52:39.497Z,5.40
2023-08-07T08:55:07.726Z,4.32
2023-08-07T08:57:35.813Z,2.30
2023-08-07T09:00:18.397Z,4.78
2023-08-07T09:02:54.915Z,5.07
2023-08-07T09:05:23.009Z,3.08
2023-08-07T09:07:50.594Z,3.78
2023-08-07T09:10:18.345Z,3.72
2023-08-07T09:13:06.650Z,1.75
2023-08-07T09:15:35.381Z,4.50
2023-08-07T09:18:08.744Z,1.90
2023-08-07T09:20:40.933Z,2.03
2023-08-07T09:23:08.106Z,1.75
2023-08-07T09:25:36.518Z,1.77
2023-08-07T09:28:05.507Z,1.88
2023-08-07T09:30:38.116Z,2.58
2023-08-07T09:33:07.348Z,5.07
2023-08-07T09:35:35.588Z,2.17
2023-08-07T09:38:03.232Z,3.80
2023-08-07T09:40:32.052Z,3.75
2023-08-07T09:43:02.011Z,1.55
2023-08-07T09:45:31.328Z,6.70
2023-08-07T09:48:00.175Z,7.07
2023-08-07T09:50:28.123Z,6.47
2023-08-07T09:52:59.501Z,5.30
2023-08-07T09:55:27.528Z,3.60
2023-08-07T09:57:55.354Z,5.28
2023-08-07T10:00:23.352Z,2.95
2023-08-07T10:02:52.053Z,4.65
2023-08-07T10:05:19.881Z,2.03
2023-08-07T10:07:48.605Z,5.05
2023-08-07T10:10:17.348Z,1.90
2023-08-07T10:12:47.357Z,2.42
2023-08-07T10:15:16.239Z,3.08
2023-08-07T10:17:44.826Z,3.55
2023-08-07T10:20:14.091Z,2.65
2023-08-07T10:22:43.853Z,2.45
2023-08-07T10:25:11.154Z,5.05
2023-08-07T10:27:41.477Z,2.30
2023-08-07T10:30:15.768Z,3.85
2023-08-07T10:32:44.850Z,1.88
2023-08-07T10:35:34.767Z,2.35
2023-08-07T10:38:12.240Z,6.00
2023-08-07T10:41:04.083Z,3.13
2023-08-07T10:43:45.837Z,2.20
2023-08-07T10:46:25.312Z,2.72
2023-08-07T10:48:59.573Z,3.10
2023-08-07T10:51:33.998Z,1.15
2023-08-07T10:54:03.172Z,1.58
2023-08-07T10:56:41.118Z,2.30
2023-08-07T10:59:13.336Z,1.77
2023-08-07T11:01:40.377Z,4.15
2023-08-07T11:04:13.625Z,3.30
2023-08-07T11:06:42.793Z,3.10
2023-08-07T11:09:11.756Z,1.40
2023-08-07T11:11:50.243Z,2.53
2023-08-07T11:14:20.160Z,4.45
2023-08-07T11:16:49.301Z,3.13
2023-08-07T11:19:18.607Z,5.38
2023-08-07T11:21:46.245Z,5.85
2023-08-07T11:24:20.259Z,2.90
2023-08-07T11:26:47.554Z,5.75
2023-08-07T11:29:23.307Z,4.13
2023-08-07T11:31:51.461Z,5.68
2023-08-07T11:34:20.827Z,2.67
2023-08-07T11:36:48.148Z,4.13
2023-08-07T11:39:15.910Z,2.38
2023-08-07T11:41:43.270Z,1.77
2023-08-07T11:44:10.690Z,4.72
2023-08-07T11:46:38.461Z,4.65
2023-08-07T11:49:07.081Z,1.33
2023-08-07T11:51:34.189Z,4.80
2023-08-07T11:54:02.175Z,1.33
2023-08-07T11:56:36.006Z,1.25
2023-08-07T11:59:04.569Z,6.35
2023-08-07T12:01:38.179Z,1.73
2023-08-07T12:04:10.770Z,2.05
2023-08-07T12:06:41.814Z,1.83
2023-08-07T12:09:14.117Z,2.03
2023-08-07T12:11:41.571Z,2.42
2023-08-07T12:14:08.617Z,9.20
2023-08-07T12:16:38.797Z,5.78
2023-08-07T12:19:06.021Z,1.40
2023-08-07T12:21:34.679Z,2.75
2023-08-07T12:24:04.612Z,2.80
2023-08-07T12:26:31.919Z,2.47
2023-08-07T12:28:58.868Z,5.40
2023-08-07T12:31:26.370Z,7.00
2023-08-07T12:33:54.194Z,4.38
2023-08-07T12:36:21.870Z,3.38
2023-08-07T12:38:49.254Z,6.45
2023-08-07T12:43:48.853Z,2.90
2023-08-07T12:48:46.047Z,1.90
2023-08-07T12:51:13.398Z,4.75
2023-08-07T12:53:41.030Z,2.83
2023-08-07T12:56:08.145Z,1.77
2023-08-07T12:58:35.360Z,4.47
2023-08-07T13:01:02.695Z,2.58
2023-08-07T13:03:31.011Z,4.45
2023-08-07T13:05:58.982Z,1.80
2023-08-07T13:08:26.131Z,3.03
2023-08-07T13:10:55.069Z,2.25
2023-08-07T13:13:23.068Z,3.80
2023-08-07T13:15:50.084Z,2.83
2023-08-07T13:18:18.088Z,1.83
2023-08-07T13:20:45.583Z,1.40
2023-08-07T13:23:15.074Z,3.45
2023-08-07T13:25:42.953Z,2.78
2023-08-07T13:28:10.174Z,2.58
2023-08-07T13:30:38.192Z,3.33
2023-08-07T13:33:06.499Z,2.78
2023-08-07T13:35:34.483Z,2.25
2023-08-07T13:38:09.241Z,3.33
2023-08-07T13:40:37.024Z,1.70
2023-08-07T13:43:09.250Z,5.80
2023-08-07T13:45:37.716Z,6.32
2023-08-07T13:48:07.945Z,3.40
2023-08-07T13:50:35.395Z,4.00
2023-08-07T13:53:13.428Z,3.75
2023-08-07T13:55:42.363Z,2.03
2023-08-07T13:58:10.935Z,4.32
2023-08-07T14:00:40.023Z,1.52
2023-08-07T14:03:07.725Z,3.03
2023-08-07T14:05:34.852Z,5.28
2023-08-07T14:08:01.881Z,3.75
2023-08-07T14:10:29.658Z,1.85
2023-08-07T14:12:59.551Z,5.50
2023-08-07T14:15:27.437Z,8.73
2023-08-07T14:17:54.893Z,2.60
2023-08-07T14:20:23.584Z,2.17
2023-08-07T14:22:52.212Z,4.47
2023-08-07T14:25:19.542Z,1.98
2023-08-07T14:27:47.675Z,2.83
2023-08-07T14:30:18.074Z,1.20
2023-08-07T14:32:48.012Z,4.05
2023-08-07T14:35:15.468Z,2.78
2023-08-07T14:37:43.417Z,1.83
2023-08-07T14:40:10.731Z,3.60
2023-08-07T14:42:38.223Z,3.53
2023-08-07T14:45:06.504Z,3.17
2023-08-07T14:47:33.825Z,2.97
2023-08-07T14:50:00.925Z,1.40
2023-08-07T14:52:28.079Z,3.88
2023-08-07T14:54:58.620Z,3.97
2023-08-07T14:57:25.765Z,3.08
2023-08-07T14:59:53.868Z,2.50
2023-08-07T15:02:21.405Z,3.40
2023-08-07T15:04:50.966Z,3.95
2023-08-07T15:07:18.448Z,2.88
2023-08-07T15:09:46.534Z,3.20
2023-08-07T15:12:14.800Z,2.33
2023-08-07T15:14:41.793Z,2.80
2023-08-07T15:17:08.998Z,4.00
2023-08-07T15:19:36.234Z,1.95
2023-08-07T15:22:04.011Z,2.90
2023-08-07T15:24:32.122Z,4.90
2023-08-07T15:27:02.439Z,2.33
2023-08-07T15:29:29.931Z,4.20
2023-08-07T15:31:57.132Z,4.10
2023-08-07T15:34:24.478Z,4.22
2023-08-07T15:36:52.935Z,2.53
2023-08-07T15:39:20.073Z,4.70
2023-08-07T15:41:47.269Z,1.75
2023-08-07T15:44:14.572Z,3.65
2023-08-07T15:46:41.655Z,8.75
2023-08-07T15:49:09.581Z,2.30
2023-08-07T15:51:36.789Z,5.55
2023-08-07T15:54:04.679Z,2.00
2023-08-07T15:56:31.694Z,1.70
2023-08-07T15:58:59.659Z,4.32
2023-08-07T16:01:26.940Z,2.00
2023-08-07T16:03:54.748Z,2.42
2023-08-07T16:06:22.753Z,3.60
2023-08-07T16:08:49.793Z,2.13
2023-08-07T16:11:16.780Z,1.70
2023-08-07T16:13:43.722Z,2.05
2023-08-07T16:16:10.892Z,2.63
2023-08-07T16:18:38.774Z,2.53
2023-08-07T16:21:06.669Z,3.20
2023-08-07T16:23:33.720Z,2.00
2023-08-07T16:26:01.302Z,3.03
2023-08-07T16:28:28.530Z,3.35
2023-08-07T16:30:55.949Z,3.17
2023-08-07T16:33:22.976Z,2.88
2023-08-07T16:35:50.129Z,2.53
2023-08-07T16:38:17.189Z,1.50
2023-08-07T16:40:44.916Z,2.35
2023-08-07T16:43:13.341Z,2.63
2023-08-07T16:45:40.374Z,1.20
2023-08-07T16:48:14.703Z,3.42
2023-08-07T16:50:45.925Z,6.30
2023-08-07T16:53:16.042Z,1.80
2023-08-07T16:55:44.220Z,3.78
2023-08-07T16:58:17.933Z,5.03
2023-08-07T17:00:45.773Z,2.50
2023-08-07T17:03:15.674Z,4.00
2023-08-07T17:05:43.824Z,2.03
2023-08-07T17:08:14.066Z,3.92
2023-08-07T17:10:42.199Z,5.15
2023-08-07T17:13:09.509Z,2.90
2023-08-07T17:15:38.223Z,5.30
2023-08-07T17:18:06.129Z,4.13
2023-08-07T17:20:34.300Z,3.42
2023-08-07T17:23:01.214Z,3.80
2023-08-07T17:25:28.223Z,1.67
2023-08-07T17:27:56.008Z,2.58
2023-08-07T17:30:23.420Z,5.50
2023-08-07T17:32:51.791Z,4.13
2023-08-07T17:35:19.198Z,1.85
2023-08-07T17:37:46.288Z,2.63
2023-08-07T17:40:14.931Z,2.60
2023-08-07T17:42:42.245Z,3.17
2023-08-07T17:45:09.804Z,2.30
2023-08-07T17:47:37.081Z,1.98
2023-08-07T17:50:05.536Z,6.68
2023-08-07T17:52:34.486Z,4.63
2023-08-07T17:55:02.190Z,3.42
2023-08-07T17:57:29.558Z,2.72
2023-08-07T17:59:57.617Z,2.45
2023-08-07T18:02:26.512Z,1.98
2023-08-07T18:04:54.090Z,3.92
2023-08-07T18:07:21.256Z,5.10
2023-08-07T18:09:48.750Z,5.03
2023-08-07T18:12:16.744Z,2.40
2023-08-07T18:14:44.073Z,5.60
2023-08-07T18:17:11.297Z,4.18
2023-08-07T18:19:39.196Z,2.65
2023-08-07T18:22:06.653Z,6.55
2023-08-07T18:24:34.711Z,1.10
2023-08-07T18:27:01.896Z,2.83
2023-08-07T18:29:29.070Z,2.95
2023-08-07T18:31:57.567Z,3.65
2023-08-07T18:34:24.833Z,4.43
2023-08-07T18:36:52.708Z,3.13
2023-08-07T18:39:20.263Z,5.05
2023-08-07T18:41:47.312Z,5.63
2023-08-07T18:44:16.264Z,4.30
2023-08-07T18:46:44.125Z,3.95
2023-08-07T18:49:11.421Z,3.53
2023-08-07T18:51:39.346Z,8.43
2023-08-07T18:54:11.558Z,3.08
2023-08-07T18:56:38.574Z,8.57
2023-08-07T18:59:11.884Z,6.88
2023-08-07T19:01:39.069Z,4.68
2023-08-07T19:04:07.203Z,4.07
2023-08-07T19:06:36.234Z,4.22
2023-08-07T19:09:03.609Z,6.20
2023-08-07T19:11:32.481Z,8.07
2023-08-07T19:14:00.073Z,4.90
2023-08-07T19:16:29.606Z,5.10
2023-08-07T19:18:57.689Z,4.25
2023-08-07T19:21:27.630Z,6.45
2023-08-07T19:23:54.950Z,3.28
2023-08-07T19:26:24.852Z,2.15
2023-08-07T19:28:53.085Z,4.20
2023-08-07T19:31:20.402Z,3.95
2023-08-07T19:33:48.222Z,5.47
2023-08-07T19:36:17.760Z,7.32
2023-08-07T19:38:44.818Z,3.65
2023-08-07T19:41:13.814Z,5.50
2023-08-07T19:43:44.548Z,5.90
2023-08-07T19:46:11.951Z,4.07
2023-08-07T19:48:40.190Z,2.70
2023-08-07T19:51:07.263Z,3.22
2023-08-07T19:53:34.501Z,6.28
2023-08-07T19:56:04.313Z,3.55
2023-08-07T19:58:32.309Z,7.05
2023-08-07T20:00:59.402Z,5.95
2023-08-07T20:03:27.420Z,4.97
2023-08-07T20:05:57.855Z,4.28
2023-08-07T20:08:25.875Z,6.22
2023-08-07T20:10:57.800Z,6.28
2023-08-07T20:13:24.920Z,6.28
2023-08-07T20:15:52.085Z,5.60
2023-08-07T20:18:19.411Z,4.20
2023-08-07T20:20:47.282Z,5.82
2023-08-07T20:23:24.269Z,5.93
2023-08-07T20:25:51.737Z,4.43
2023-08-07T20:28:18.955Z,6.63
2023-08-07T20:30:46.264Z,3.70
2023-08-07T20:33:15.973Z,4.07
2023-08-07T20:35:43.111Z,6.90
2023-08-07T20:38:12.784Z,7.40
2023-08-07T20:40:39.797Z,7.40
2023-08-07T20:43:08.119Z,7.47
2023-08-07T20:45:36.152Z,6.35
2023-08-07T20:48:03.430Z,2.88
2023-08-07T20:50:30.504Z,7.22
2023-08-07T20:52:58.457Z,7.40
2023-08-07T20:55:25.481Z,8.38
2023-08-07T20:57:52.475Z,4.85
2023-08-07T21:00:20.360Z,6.55
2023-08-07T21:02:47.481Z,3.35
2023-08-07T21:05:15.796Z,6.32
2023-08-07T21:07:43.984Z,5.90
2023-08-07T21:10:13.147Z,6.90
2023-08-07T21:12:40.549Z,6.45
2023-08-07T21:15:09.228Z,5.50
2023-08-07T21:17:37.163Z,6.70
2023-08-07T21:20:05.875Z,8.70
2023-08-07T21:22:32.856Z,4.20
2023-08-07T21:25:00.168Z,4.60
2023-08-07T21:27:37.040Z,9.55
2023-08-07T21:30:04.698Z,5.53
2023-08-07T21:32:32.019Z,4.65
2023-08-07T21:34:59.141Z,6.97
2023-08-07T21:37:32.945Z,5.15
2023-08-07T21:40:00.210Z,4.72
2023-08-07T21:42:30.625Z,6.55
2023-08-07T21:45:00.295Z,7.00
2023-08-07T21:47:27.543Z,3.20
2023-08-07T21:49:54.701Z,3.90
2023-08-07T21:52:23.006Z,5.82
2023-08-07T21:54:51.172Z,6.07
2023-08-07T21:57:19.812Z,7.22
2023-08-07T21:59:47.532Z,8.23
2023-08-07T22:02:15.341Z,9.77
2023-08-07T22:04:43.241Z,5.45
2023-08-07T22:07:10.826Z,7.35
2023-08-07T22:09:44.469Z,7.95
2023-08-07T22:12:11.531Z,7.45
2023-08-07T22:14:42.789Z,5.30
2023-08-07T22:17:09.893Z,7.68
2023-08-07T22:19:37.463Z,5.07
2023-08-07T22:22:05.978Z,8.18
2023-08-07T22:24:37.621Z,4.75
2023-08-07T22:27:05.185Z,7.80
2023-08-07T22:29:33.935Z,11.82
2023-08-07T22:32:02.705Z,6.55
2023-08-07T22:34:30.739Z,10.88
2023-08-07T22:36:58.116Z,9.90
2023-08-07T22:39:25.418Z,5.97
2023-08-07T22:41:52.535Z,9.82
2023-08-07T22:44:19.622Z,5.32
2023-08-07T22:46:46.884Z,6.78
2023-08-07T22:49:15.982Z,8.15
2023-08-07T22:51:43.725Z,11.05
2023-08-07T22:54:12.877Z,9.20
2023-08-07T22:56:40.825Z,7.45
2023-08-07T22:59:11.556Z,10.68
2023-08-07T23:01:38.565Z,9.57
2023-08-07T23:04:06.129Z,9.18
2023-08-07T23:06:33.753Z,11.60
2023-08-07T23:09:02.698Z,9.35
2023-08-07T23:11:35.840Z,8.57
2023-08-07T23:14:03.036Z,12.23
2023-08-07T23:16:30.051Z,7.80
2023-08-07T23:18:57.074Z,11.13
2023-08-07T23:21:24.082Z,5.10
2023-08-07T23:23:52.272Z,14.27
2023-08-07T23:26:19.430Z,7.50
2023-08-07T23:28:46.532Z,12.45
2023-08-07T23:31:15.911Z,12.70
2023-08-07T23:33:46.074Z,11.35
2023-08-07T23:36:15.877Z,6.68
2023-08-07T23:38:42.943Z,7.47
2023-08-07T23:41:13.342Z,11.77
2023-08-07T23:43:41.133Z,9.68
2023-08-07T23:46:08.865Z,6.97
2023-08-07T23:48:37.761Z,12.80
2023-08-07T23:51:05.131Z,13.15
2023-08-07T23:53:33.230Z,11.63
2023-08-07T23:56:00.361Z,9.70
2023-08-07T23:58:29.043Z,6.40
